sensor_id;sensor_type;location;lat;lon;timestamp;temperature;humidity
70336;SHT31;57756;47.408;18.940;2023-08-06T00:01:25;19.89;99.99
70336;SHT31;57756;47.408;18.940;2023-08-06T00:03:51;19.89;99.99
70336;SHT31;57756;47.408;18.940;2023-08-06T00:06:16;19.89;99.99
70336;SHT31;57756;47.408;18.940;2023-08-06T00:08:42;19.88;99.99
70336;SHT31;57756;47.408;18.940;2023-08-06T00:11:08;19.83;99.99
70336;SHT31;57756;47.408;18.940;2023-08-06T00:13:33;19.89;99.99
70336;SHT31;57756;47.408;18.940;2023-08-06T00:16:11;19.83;99.99
70336;SHT31;57756;47.408;18.940;2023-08-06T00:18:37;19.85;99.99
70336;SHT31;57756;47.408;18.940;2023-08-06T00:21:03;19.85;99.99
70336;SHT31;57756;47.408;18.940;2023-08-06T00:23:29;19.79;99.99
70336;SHT31;57756;47.408;18.940;2023-08-06T00:25:54;19.81;99.99
70336;SHT31;57756;47.408;18.940;2023-08-06T00:28:19;19.81;99.99
70336;SHT31;57756;47.408;18.940;2023-08-06T00:30:45;19.82;99.99
70336;SHT31;57756;47.408;18.940;2023-08-06T00:33:10;19.77;99.99
70336;SHT31;57756;47.408;18.940;2023-08-06T00:35:36;19.81;99.99
70336;SHT31;57756;47.408;18.940;2023-08-06T00:38:02;19.81;99.99
70336;SHT31;57756;47.408;18.940;2023-08-06T00:40:27;19.81;99.99
70336;SHT31;57756;47.408;18.940;2023-08-06T00:42:56;19.77;99.99
70336;SHT31;57756;47.408;18.940;2023-08-06T00:45:22;19.74;99.99
70336;SHT31;57756;47.408;18.940;2023-08-06T00:47:48;19.77;99.99
70336;SHT31;57756;47.408;18.940;2023-08-06T00:50:13;19.75;99.99
70336;SHT31;57756;47.408;18.940;2023-08-06T00:52:40;19.78;99.99
70336;SHT31;57756;47.408;18.940;2023-08-06T00:55:06;19.77;99.99
70336;SHT31;57756;47.408;18.940;2023-08-06T00:57:32;19.78;99.99
70336;SHT31;57756;47.408;18.940;2023-08-06T00:59:58;19.74;99.99
70336;SHT31;57756;47.408;18.940;2023-08-06T01:02:23;19.74;99.99
70336;SHT31;57756;47.408;18.940;2023-08-06T01:04:48;19.67;99.99
70336;SHT31;57756;47.408;18.940;2023-08-06T01:07:22;19.62;99.99
70336;SHT31;57756;47.408;18.940;2023-08-06T01:13:10;19.51;99.99
70336;SHT31;57756;47.408;18.940;2023-08-06T01:15:41;19.51;99.99
70336;SHT31;57756;47.408;18.940;2023-08-06T01:18:09;19.46;99.99
70336;SHT31;57756;47.408;18.940;2023-08-06T01:20:35;19.44;99.99
70336;SHT31;57756;47.408;18.940;2023-08-06T01:23:00;19.43;99.99
70336;SHT31;57756;47.408;18.940;2023-08-06T01:28:23;19.35;99.99
70336;SHT31;57756;47.408;18.940;2023-08-06T01:30:53;19.35;99.99
70336;SHT31;57756;47.408;18.940;2023-08-06T01:33:21;19.40;99.99
70336;SHT31;57756;47.408;18.940;2023-08-06T01:35:49;19.41;99.99
70336;SHT31;57756;47.408;18.940;2023-08-06T01:38:15;19.41;99.99
70336;SHT31;57756;47.408;18.940;2023-08-06T01:40:41;19.41;99.99
70336;SHT31;57756;47.408;18.940;2023-08-06T01:43:06;19.35;99.99
70336;SHT31;57756;47.408;18.940;2023-08-06T01:45:32;19.38;99.99
70336;SHT31;57756;47.408;18.940;2023-08-06T01:47:57;19.37;99.99
70336;SHT31;57756;47.408;18.940;2023-08-06T01:50:23;19.38;99.99
70336;SHT31;57756;47.408;18.940;2023-08-06T01:52:48;19.30;99.99
70336;SHT31;57756;47.408;18.940;2023-08-06T01:55:14;19.34;99.99
70336;SHT31;57756;47.408;18.940;2023-08-06T01:57:39;19.31;99.99
70336;SHT31;57756;47.408;18.940;2023-08-06T02:00:05;19.34;99.99
70336;SHT31;57756;47.408;18.940;2023-08-06T02:02:31;19.34;99.99
70336;SHT31;57756;47.408;18.940;2023-08-06T02:04:56;19.30;99.99
70336;SHT31;57756;47.408;18.940;2023-08-06T02:07:23;19.31;99.99
70336;SHT31;57756;47.408;18.940;2023-08-06T02:09:49;19.26;99.99
70336;SHT31;57756;47.408;18.940;2023-08-06T02:12:14;19.19;99.99
70336;SHT31;57756;47.408;18.940;2023-08-06T02:14:39;19.20;99.99
70336;SHT31;57756;47.408;18.940;2023-08-06T02:17:05;19.21;99.99
70336;SHT31;57756;47.408;18.940;2023-08-06T02:19:30;19.16;99.99
70336;SHT31;57756;47.408;18.940;2023-08-06T02:21:56;19.19;99.99
70336;SHT31;57756;47.408;18.940;2023-08-06T02:24:22;19.19;99.99
70336;SHT31;57756;47.408;18.940;2023-08-06T02:26:47;19.17;99.99
70336;SHT31;57756;47.408;18.940;2023-08-06T02:29:16;19.20;99.99
70336;SHT31;57756;47.408;18.940;2023-08-06T02:31:41;19.20;99.99
70336;SHT31;57756;47.408;18.940;2023-08-06T02:34:07;19.14;99.99
70336;SHT31;57756;47.408;18.940;2023-08-06T02:36:32;19.14;99.99
70336;SHT31;57756;47.408;18.940;2023-08-06T02:38:57;19.09;99.99
70336;SHT31;57756;47.408;18.940;2023-08-06T02:41:23;19.09;99.99
70336;SHT31;57756;47.408;18.940;2023-08-06T02:43:48;19.10;99.99
70336;SHT31;57756;47.408;18.940;2023-08-06T02:46:14;19.10;99.99
70336;SHT31;57756;47.408;18.940;2023-08-06T02:48:39;19.13;99.99
70336;SHT31;57756;47.408;18.940;2023-08-06T02:51:05;19.10;99.99
70336;SHT31;57756;47.408;18.940;2023-08-06T02:53:30;19.07;99.99
70336;SHT31;57756;47.408;18.940;2023-08-06T02:55:57;19.09;99.99
70336;SHT31;57756;47.408;18.940;2023-08-06T02:58:22;19.03;99.99
70336;SHT31;57756;47.408;18.940;2023-08-06T03:01:03;19.04;99.99
70336;SHT31;57756;47.408;18.940;2023-08-06T03:03:31;19.00;99.99
70336;SHT31;57756;47.408;18.940;2023-08-06T03:05:56;19.03;99.99
70336;SHT31;57756;47.408;18.940;2023-08-06T03:08:22;18.98;99.99
70336;SHT31;57756;47.408;18.940;2023-08-06T03:10:49;18.91;99.99
70336;SHT31;57756;47.408;18.940;2023-08-06T03:13:15;18.91;99.99
70336;SHT31;57756;47.408;18.940;2023-08-06T03:15:40;18.96;99.99
70336;SHT31;57756;47.408;18.940;2023-08-06T03:18:06;19.00;99.99
70336;SHT31;57756;47.408;18.940;2023-08-06T03:20:34;18.99;99.99
70336;SHT31;57756;47.408;18.940;2023-08-06T03:22:59;18.99;99.99
70336;SHT31;57756;47.408;18.940;2023-08-06T03:25:25;18.98;99.99
70336;SHT31;57756;47.408;18.940;2023-08-06T03:27:50;18.91;99.99
70336;SHT31;57756;47.408;18.940;2023-08-06T03:30:16;18.88;99.99
70336;SHT31;57756;47.408;18.940;2023-08-06T03:32:41;18.85;99.99
70336;SHT31;57756;47.408;18.940;2023-08-06T03:35:07;18.89;99.99
70336;SHT31;57756;47.408;18.940;2023-08-06T03:37:32;18.85;99.99
70336;SHT31;57756;47.408;18.940;2023-08-06T03:39:58;18.86;99.99
70336;SHT31;57756;47.408;18.940;2023-08-06T03:42:23;18.86;99.99
70336;SHT31;57756;47.408;18.940;2023-08-06T03:44:48;18.77;99.99
70336;SHT31;57756;47.408;18.940;2023-08-06T03:47:14;18.81;99.99
70336;SHT31;57756;47.408;18.940;2023-08-06T03:49:39;18.77;99.99
70336;SHT31;57756;47.408;18.940;2023-08-06T03:52:05;18.77;99.99
70336;SHT31;57756;47.408;18.940;2023-08-06T03:54:31;18.71;99.99
70336;SHT31;57756;47.408;18.940;2023-08-06T03:56:57;18.71;99.99
70336;SHT31;57756;47.408;18.940;2023-08-06T03:59:22;18.71;99.99
70336;SHT31;57756;47.408;18.940;2023-08-06T04:01:48;18.73;99.99
70336;SHT31;57756;47.408;18.940;2023-08-06T04:04:13;18.75;99.99
70336;SHT31;57756;47.408;18.940;2023-08-06T04:06:39;18.71;99.99
70336;SHT31;57756;47.408;18.940;2023-08-06T04:09:04;18.72;99.99
70336;SHT31;57756;47.408;18.940;2023-08-06T04:11:29;18.69;99.99
70336;SHT31;57756;47.408;18.940;2023-08-06T04:13:55;18.71;99.99
70336;SHT31;57756;47.408;18.940;2023-08-06T04:16:21;18.71;99.99
70336;SHT31;57756;47.408;18.940;2023-08-06T04:18:47;18.61;99.99
70336;SHT31;57756;47.408;18.940;2023-08-06T04:21:12;18.58;99.99
70336;SHT31;57756;47.408;18.940;2023-08-06T04:23:38;18.59;99.99
70336;SHT31;57756;47.408;18.940;2023-08-06T04:26:03;18.56;99.99
70336;SHT31;57756;47.408;18.940;2023-08-06T04:28:29;18.56;99.99
70336;SHT31;57756;47.408;18.940;2023-08-06T04:30:55;18.55;99.99
70336;SHT31;57756;47.408;18.940;2023-08-06T04:33:20;18.51;99.99
70336;SHT31;57756;47.408;18.940;2023-08-06T04:35:46;18.45;99.99
70336;SHT31;57756;47.408;18.940;2023-08-06T04:38:11;18.43;99.99
70336;SHT31;57756;47.408;18.940;2023-08-06T04:40:37;18.40;99.99
70336;SHT31;57756;47.408;18.940;2023-08-06T04:43:02;18.48;99.99
70336;SHT31;57756;47.408;18.940;2023-08-06T04:45:28;18.41;99.99
70336;SHT31;57756;47.408;18.940;2023-08-06T04:47:53;18.47;99.99
70336;SHT31;57756;47.408;18.940;2023-08-06T04:50:20;18.41;99.99
70336;SHT31;57756;47.408;18.940;2023-08-06T04:52:45;18.41;99.99
70336;SHT31;57756;47.408;18.940;2023-08-06T04:55:10;18.43;99.99
70336;SHT31;57756;47.408;18.940;2023-08-06T04:57:36;18.44;99.99
70336;SHT31;57756;47.408;18.940;2023-08-06T05:00:02;18.45;99.99
70336;SHT31;57756;47.408;18.940;2023-08-06T05:02:27;18.44;99.99
70336;SHT31;57756;47.408;18.940;2023-08-06T05:04:53;18.45;99.99
70336;SHT31;57756;47.408;18.940;2023-08-06T05:07:18;18.41;99.99
70336;SHT31;57756;47.408;18.940;2023-08-06T05:09:44;18.38;99.99
70336;SHT31;57756;47.408;18.940;2023-08-06T05:12:09;18.35;99.99
70336;SHT31;57756;47.408;18.940;2023-08-06T05:14:35;18.35;99.99
70336;SHT31;57756;47.408;18.940;2023-08-06T05:17:00;18.30;99.87
70336;SHT31;57756;47.408;18.940;2023-08-06T05:19:27;18.33;99.71
70336;SHT31;57756;47.408;18.940;2023-08-06T05:21:53;18.31;99.99
70336;SHT31;57756;47.408;18.940;2023-08-06T05:24:18;18.38;99.99
70336;SHT31;57756;47.408;18.940;2023-08-06T05:26:43;18.38;99.97
70336;SHT31;57756;47.408;18.940;2023-08-06T05:29:12;18.34;99.99
70336;SHT31;57756;47.408;18.940;2023-08-06T05:31:37;18.30;99.28
70336;SHT31;57756;47.408;18.940;2023-08-06T05:34:02;18.34;99.35
70336;SHT31;57756;47.408;18.940;2023-08-06T05:36:28;18.27;99.38
70336;SHT31;57756;47.408;18.940;2023-08-06T05:38:53;18.38;99.78
70336;SHT31;57756;47.408;18.940;2023-08-06T05:41:19;18.40;99.99
70336;SHT31;57756;47.408;18.940;2023-08-06T05:43:44;18.33;99.20
70336;SHT31;57756;47.408;18.940;2023-08-06T05:46:10;18.33;98.96
70336;SHT31;57756;47.408;18.940;2023-08-06T05:48:35;18.25;99.31
70336;SHT31;57756;47.408;18.940;2023-08-06T05:51:01;18.27;98.87
70336;SHT31;57756;47.408;18.940;2023-08-06T05:53:26;18.24;98.84
70336;SHT31;57756;47.408;18.940;2023-08-06T05:55:52;18.30;98.83
70336;SHT31;57756;47.408;18.940;2023-08-06T05:58:17;18.18;98.22
70336;SHT31;57756;47.408;18.940;2023-08-06T06:00:45;18.17;98.63
70336;SHT31;57756;47.408;18.940;2023-08-06T06:03:10;18.23;98.57
70336;SHT31;57756;47.408;18.940;2023-08-06T06:05:38;18.28;98.06
70336;SHT31;57756;47.408;18.940;2023-08-06T06:08:04;18.24;98.74
70336;SHT31;57756;47.408;18.940;2023-08-06T06:10:29;18.08;97.92
70336;SHT31;57756;47.408;18.940;2023-08-06T06:12:55;18.11;97.80
70336;SHT31;57756;47.408;18.940;2023-08-06T06:15:20;17.93;97.93
70336;SHT31;57756;47.408;18.940;2023-08-06T06:17:46;17.97;98.66
70336;SHT31;57756;47.408;18.940;2023-08-06T06:20:11;18.04;98.26
70336;SHT31;57756;47.408;18.940;2023-08-06T06:22:37;17.97;98.38
70336;SHT31;57756;47.408;18.940;2023-08-06T06:25:02;17.97;98.02
70336;SHT31;57756;47.408;18.940;2023-08-06T06:27:28;18.00;97.93
70336;SHT31;57756;47.408;18.940;2023-08-06T06:29:53;18.00;98.03
70336;SHT31;57756;47.408;18.940;2023-08-06T06:32:20;18.01;98.34
70336;SHT31;57756;47.408;18.940;2023-08-06T06:34:46;18.01;98.12
70336;SHT31;57756;47.408;18.940;2023-08-06T06:37:11;18.06;97.81
70336;SHT31;57756;47.408;18.940;2023-08-06T06:39:36;18.03;97.33
70336;SHT31;57756;47.408;18.940;2023-08-06T06:42:02;18.16;97.84
70336;SHT31;57756;47.408;18.940;2023-08-06T06:44:27;18.14;97.35
70336;SHT31;57756;47.408;18.940;2023-08-06T06:46:53;18.18;97.29
70336;SHT31;57756;47.408;18.940;2023-08-06T06:49:18;18.20;97.50
70336;SHT31;57756;47.408;18.940;2023-08-06T06:51:44;18.34;97.06
70336;SHT31;57756;47.408;18.940;2023-08-06T06:54:09;18.52;97.43
70336;SHT31;57756;47.408;18.940;2023-08-06T06:56:34;18.58;96.63
70336;SHT31;57756;47.408;18.940;2023-08-06T06:59:00;18.64;96.83
70336;SHT31;57756;47.408;18.940;2023-08-06T07:01:25;18.64;95.89
70336;SHT31;57756;47.408;18.940;2023-08-06T07:03:51;18.61;96.60
70336;SHT31;57756;47.408;18.940;2023-08-06T07:06:16;18.59;95.86
70336;SHT31;57756;47.408;18.940;2023-08-06T07:08:44;18.61;96.91
70336;SHT31;57756;47.408;18.940;2023-08-06T07:11:09;18.66;97.28
70336;SHT31;57756;47.408;18.940;2023-08-06T07:13:35;18.66;96.06
70336;SHT31;57756;47.408;18.940;2023-08-06T07:16:01;18.69;96.17
70336;SHT31;57756;47.408;18.940;2023-08-06T07:18:26;18.64;95.28
70336;SHT31;57756;47.408;18.940;2023-08-06T07:20:53;18.56;95.64
70336;SHT31;57756;47.408;18.940;2023-08-06T07:23:22;18.54;95.44
70336;SHT31;57756;47.408;18.940;2023-08-06T07:25:48;18.58;95.72
70336;SHT31;57756;47.408;18.940;2023-08-06T07:28:14;18.52;94.99
70336;SHT31;57756;47.408;18.940;2023-08-06T07:30:40;18.52;95.40
70336;SHT31;57756;47.408;18.940;2023-08-06T07:33:06;18.56;95.50
70336;SHT31;57756;47.408;18.940;2023-08-06T07:35:32;18.61;95.33
70336;SHT31;57756;47.408;18.940;2023-08-06T07:37:58;18.55;95.39
70336;SHT31;57756;47.408;18.940;2023-08-06T07:40:23;18.52;95.42
70336;SHT31;57756;47.408;18.940;2023-08-06T07:42:49;18.44;95.66
70336;SHT31;57756;47.408;18.940;2023-08-06T07:45:14;18.41;96.41
70336;SHT31;57756;47.408;18.940;2023-08-06T07:47:40;18.45;96.17
70336;SHT31;57756;47.408;18.940;2023-08-06T07:50:06;18.49;96.18
70336;SHT31;57756;47.408;18.940;2023-08-06T07:52:31;18.48;96.38
70336;SHT31;57756;47.408;18.940;2023-08-06T07:54:57;18.47;96.86
70336;SHT31;57756;47.408;18.940;2023-08-06T07:57:23;18.54;96.95
70336;SHT31;57756;47.408;18.940;2023-08-06T07:59:49;18.59;95.95
70336;SHT31;57756;47.408;18.940;2023-08-06T08:02:14;18.62;95.74
70336;SHT31;57756;47.408;18.940;2023-08-06T08:04:40;18.64;94.67
70336;SHT31;57756;47.408;18.940;2023-08-06T08:07:05;18.69;95.09
70336;SHT31;57756;47.408;18.940;2023-08-06T08:09:31;18.76;94.53
70336;SHT31;57756;47.408;18.940;2023-08-06T08:11:56;18.83;94.86
70336;SHT31;57756;47.408;18.940;2023-08-06T08:14:22;18.82;94.48
70336;SHT31;57756;47.408;18.940;2023-08-06T08:16:47;18.73;94.79
70336;SHT31;57756;47.408;18.940;2023-08-06T08:19:13;18.77;93.99
70336;SHT31;57756;47.408;18.940;2023-08-06T08:21:38;18.81;94.79
70336;SHT31;57756;47.408;18.940;2023-08-06T08:24:04;18.76;94.44
70336;SHT31;57756;47.408;18.940;2023-08-06T08:26:29;18.61;94.67
70336;SHT31;57756;47.408;18.940;2023-08-06T08:28:56;18.55;94.53
70336;SHT31;57756;47.408;18.940;2023-08-06T08:31:22;18.58;94.60
70336;SHT31;57756;47.408;18.940;2023-08-06T08:33:49;18.71;94.68
70336;SHT31;57756;47.408;18.940;2023-08-06T08:36:14;18.71;94.00
70336;SHT31;57756;47.408;18.940;2023-08-06T08:38:40;18.71;93.90
70336;SHT31;57756;47.408;18.940;2023-08-06T08:41:05;18.83;94.26
70336;SHT31;57756;47.408;18.940;2023-08-06T08:43:31;18.82;93.73
70336;SHT31;57756;47.408;18.940;2023-08-06T08:45:58;18.89;92.72
70336;SHT31;57756;47.408;18.940;2023-08-06T08:48:25;18.77;93.62
70336;SHT31;57756;47.408;18.940;2023-08-06T08:50:52;18.75;93.22
70336;SHT31;57756;47.408;18.940;2023-08-06T08:53:18;18.75;92.82
70336;SHT31;57756;47.408;18.940;2023-08-06T08:55:47;18.73;93.07
70336;SHT31;57756;47.408;18.940;2023-08-06T08:58:13;18.88;92.86
70336;SHT31;57756;47.408;18.940;2023-08-06T09:00:43;18.98;92.86
70336;SHT31;57756;47.408;18.940;2023-08-06T09:03:10;18.93;92.42
70336;SHT31;57756;47.408;18.940;2023-08-06T09:05:37;18.93;92.57
70336;SHT31;57756;47.408;18.940;2023-08-06T09:08:04;19.04;92.60
70336;SHT31;57756;47.408;18.940;2023-08-06T09:10:30;19.17;92.13
70336;SHT31;57756;47.408;18.940;2023-08-06T09:12:57;19.17;91.45
70336;SHT31;57756;47.408;18.940;2023-08-06T09:15:26;19.14;92.01
70336;SHT31;57756;47.408;18.940;2023-08-06T09:17:53;19.03;92.05
70336;SHT31;57756;47.408;18.940;2023-08-06T09:20:19;18.99;92.56
70336;SHT31;57756;47.408;18.940;2023-08-06T09:22:45;19.14;92.05
70336;SHT31;57756;47.408;18.940;2023-08-06T09:25:10;19.24;92.82
70336;SHT31;57756;47.408;18.940;2023-08-06T09:27:39;19.38;92.15
70336;SHT31;57756;47.408;18.940;2023-08-06T09:30:06;19.48;90.35
70336;SHT31;57756;47.408;18.940;2023-08-06T09:32:45;19.61;90.88
70336;SHT31;57756;47.408;18.940;2023-08-06T09:35:19;19.77;90.58
70336;SHT31;57756;47.408;18.940;2023-08-06T09:37:45;19.75;89.52
70336;SHT31;57756;47.408;18.940;2023-08-06T09:40:30;20.08;90.10
70336;SHT31;57756;47.408;18.940;2023-08-06T09:42:57;20.08;88.11
70336;SHT31;57756;47.408;18.940;2023-08-06T09:45:24;20.30;88.76
70336;SHT31;57756;47.408;18.940;2023-08-06T09:47:56;20.16;87.90
70336;SHT31;57756;47.408;18.940;2023-08-06T09:50:22;20.34;87.73
70336;SHT31;57756;47.408;18.940;2023-08-06T09:52:50;20.54;87.07
70336;SHT31;57756;47.408;18.940;2023-08-06T09:55:17;20.54;86.66
70336;SHT31;57756;47.408;18.940;2023-08-06T09:57:43;20.47;87.07
70336;SHT31;57756;47.408;18.940;2023-08-06T10:00:10;20.55;86.69
70336;SHT31;57756;47.408;18.940;2023-08-06T10:02:39;20.53;86.56
70336;SHT31;57756;47.408;18.940;2023-08-06T10:05:08;20.51;86.14
70336;SHT31;57756;47.408;18.940;2023-08-06T10:07:34;20.54;86.95
70336;SHT31;57756;47.408;18.940;2023-08-06T10:10:00;20.64;86.82
70336;SHT31;57756;47.408;18.940;2023-08-06T10:12:29;21.05;86.30
70336;SHT31;57756;47.408;18.940;2023-08-06T10:14:59;20.65;85.18
70336;SHT31;57756;47.408;18.940;2023-08-06T10:17:25;20.64;84.50
70336;SHT31;57756;47.408;18.940;2023-08-06T10:19:52;20.68;84.94
70336;SHT31;57756;47.408;18.940;2023-08-06T10:22:20;20.58;84.77
70336;SHT31;57756;47.408;18.940;2023-08-06T10:24:51;20.77;85.41
70336;SHT31;57756;47.408;18.940;2023-08-06T10:27:34;20.75;85.30
70336;SHT31;57756;47.408;18.940;2023-08-06T10:30:27;20.23;84.83
70336;SHT31;57756;47.408;18.940;2023-08-06T10:32:54;20.30;85.65
70336;SHT31;57756;47.408;18.940;2023-08-06T10:40:50;20.20;86.16
70336;SHT31;57756;47.408;18.940;2023-08-06T10:43:32;20.47;86.04
70336;SHT31;57756;47.408;18.940;2023-08-06T10:46:01;20.60;85.24
70336;SHT31;57756;47.408;18.940;2023-08-06T10:50:56;20.74;84.68
70336;SHT31;57756;47.408;18.940;2023-08-06T10:53:22;21.09;83.83
70336;SHT31;57756;47.408;18.940;2023-08-06T10:55:47;21.39;85.84
70336;SHT31;57756;47.408;18.940;2023-08-06T10:58:15;21.46;84.37
70336;SHT31;57756;47.408;18.940;2023-08-06T11:00:40;21.01;85.07
70336;SHT31;57756;47.408;18.940;2023-08-06T11:03:06;21.06;84.65
70336;SHT31;57756;47.408;18.940;2023-08-06T11:05:32;21.01;85.23
70336;SHT31;57756;47.408;18.940;2023-08-06T11:07:58;20.98;85.15
70336;SHT31;57756;47.408;18.940;2023-08-06T11:10:23;20.65;85.39
70336;SHT31;57756;47.408;18.940;2023-08-06T11:12:49;20.47;86.97
70336;SHT31;57756;47.408;18.940;2023-08-06T11:15:14;20.06;87.77
70336;SHT31;57756;47.408;18.940;2023-08-06T11:17:40;20.22;88.03
70336;SHT31;57756;47.408;18.940;2023-08-06T11:20:07;20.20;87.15
70336;SHT31;57756;47.408;18.940;2023-08-06T11:22:32;20.04;88.16
70336;SHT31;57756;47.408;18.940;2023-08-06T11:24:58;20.20;89.21
70336;SHT31;57756;47.408;18.940;2023-08-06T11:27:26;20.06;86.85
70336;SHT31;57756;47.408;18.940;2023-08-06T11:29:53;20.12;85.93
70336;SHT31;57756;47.408;18.940;2023-08-06T11:32:19;20.54;85.79
70336;SHT31;57756;47.408;18.940;2023-08-06T11:34:45;20.85;84.42
70336;SHT31;57756;47.408;18.940;2023-08-06T11:37:11;20.87;84.39
70336;SHT31;57756;47.408;18.940;2023-08-06T11:39:38;20.68;84.40
70336;SHT31;57756;47.408;18.940;2023-08-06T11:42:04;20.70;85.15
70336;SHT31;57756;47.408;18.940;2023-08-06T11:44:32;21.06;84.69
70336;SHT31;57756;47.408;18.940;2023-08-06T11:46:59;22.23;83.46
70336;SHT31;57756;47.408;18.940;2023-08-06T11:49:46;22.81;81.23
70336;SHT31;57756;47.408;18.940;2023-08-06T11:52:20;22.25;80.88
70336;SHT31;57756;47.408;18.940;2023-08-06T11:54:47;21.93;83.52
70336;SHT31;57756;47.408;18.940;2023-08-06T11:57:13;21.42;84.61
70336;SHT31;57756;47.408;18.940;2023-08-06T11:59:39;20.99;87.26
70336;SHT31;57756;47.408;18.940;2023-08-06T12:02:08;20.55;87.56
70336;SHT31;57756;47.408;18.940;2023-08-06T12:04:59;20.39;89.21
70336;SHT31;57756;47.408;18.940;2023-08-06T12:07:32;20.37;89.39
70336;SHT31;57756;47.408;18.940;2023-08-06T12:09:58;20.45;89.74
70336;SHT31;57756;47.408;18.940;2023-08-06T12:12:24;20.32;89.50
70336;SHT31;57756;47.408;18.940;2023-08-06T12:14:50;20.30;90.67
70336;SHT31;57756;47.408;18.940;2023-08-06T12:17:15;20.27;90.11
70336;SHT31;57756;47.408;18.940;2023-08-06T12:19:41;20.13;91.06
70336;SHT31;57756;47.408;18.940;2023-08-06T12:22:06;20.17;90.13
70336;SHT31;57756;47.408;18.940;2023-08-06T12:24:32;20.41;90.57
70336;SHT31;57756;47.408;18.940;2023-08-06T12:26:57;20.60;90.05
70336;SHT31;57756;47.408;18.940;2023-08-06T12:29:24;20.63;88.96
70336;SHT31;57756;47.408;18.940;2023-08-06T12:31:50;20.48;87.97
70336;SHT31;57756;47.408;18.940;2023-08-06T12:34:15;20.81;88.28
70336;SHT31;57756;47.408;18.940;2023-08-06T12:36:41;20.84;87.14
70336;SHT31;57756;47.408;18.940;2023-08-06T12:39:06;20.51;87.15
70336;SHT31;57756;47.408;18.940;2023-08-06T12:41:31;20.55;86.38
70336;SHT31;57756;47.408;18.940;2023-08-06T12:43:57;20.70;86.57
70336;SHT31;57756;47.408;18.940;2023-08-06T12:46:22;20.58;85.94
70336;SHT31;57756;47.408;18.940;2023-08-06T12:48:48;20.50;85.94
70336;SHT31;57756;47.408;18.940;2023-08-06T12:51:14;20.51;86.50
70336;SHT31;57756;47.408;18.940;2023-08-06T12:53:39;20.63;86.19
70336;SHT31;57756;47.408;18.940;2023-08-06T12:56:04;20.50;85.49
70336;SHT31;57756;47.408;18.940;2023-08-06T12:58:30;20.50;87.13
70336;SHT31;57756;47.408;18.940;2023-08-06T13:00:56;20.43;85.89
70336;SHT31;57756;47.408;18.940;2023-08-06T13:03:22;20.40;85.83
70336;SHT31;57756;47.408;18.940;2023-08-06T13:05:47;20.32;86.10
70336;SHT31;57756;47.408;18.940;2023-08-06T13:08:13;20.40;86.59
70336;SHT31;57756;47.408;18.940;2023-08-06T13:10:38;20.23;85.72
70336;SHT31;57756;47.408;18.940;2023-08-06T13:13:04;20.17;85.98
70336;SHT31;57756;47.408;18.940;2023-08-06T13:15:30;20.22;86.39
70336;SHT31;57756;47.408;18.940;2023-08-06T13:17:55;20.19;87.16
70336;SHT31;57756;47.408;18.940;2023-08-06T13:20:21;20.05;87.62
70336;SHT31;57756;47.408;18.940;2023-08-06T13:22:48;20.10;88.74
70336;SHT31;57756;47.408;18.940;2023-08-06T13:25:15;20.08;88.56
70336;SHT31;57756;47.408;18.940;2023-08-06T13:27:42;20.09;88.00
70336;SHT31;57756;47.408;18.940;2023-08-06T13:30:09;20.24;86.87
70336;SHT31;57756;47.408;18.940;2023-08-06T13:32:35;20.26;87.15
70336;SHT31;57756;47.408;18.940;2023-08-06T13:35:03;20.40;86.77
70336;SHT31;57756;47.408;18.940;2023-08-06T13:37:29;20.26;86.65
70336;SHT31;57756;47.408;18.940;2023-08-06T13:39:54;20.34;86.91
70336;SHT31;57756;47.408;18.940;2023-08-06T13:42:20;20.22;86.10
70336;SHT31;57756;47.408;18.940;2023-08-06T13:44:45;20.41;86.13
70336;SHT31;57756;47.408;18.940;2023-08-06T13:47:11;20.34;85.77
70336;SHT31;57756;47.408;18.940;2023-08-06T13:49:36;20.51;85.71
70336;SHT31;57756;47.408;18.940;2023-08-06T13:52:02;20.60;86.40
70336;SHT31;57756;47.408;18.940;2023-08-06T13:54:27;20.54;85.29
70336;SHT31;57756;47.408;18.940;2023-08-06T13:56:53;20.48;85.28
70336;SHT31;57756;47.408;18.940;2023-08-06T13:59:18;20.34;85.70
70336;SHT31;57756;47.408;18.940;2023-08-06T14:01:45;20.26;85.72
70336;SHT31;57756;47.408;18.940;2023-08-06T14:04:11;20.27;86.01
70336;SHT31;57756;47.408;18.940;2023-08-06T14:06:37;20.22;86.09
70336;SHT31;57756;47.408;18.940;2023-08-06T14:09:02;20.36;86.37
70336;SHT31;57756;47.408;18.940;2023-08-06T14:11:29;20.20;85.71
70336;SHT31;57756;47.408;18.940;2023-08-06T14:13:54;20.00;85.74
70336;SHT31;57756;47.408;18.940;2023-08-06T14:16:20;20.06;86.88
70336;SHT31;57756;47.408;18.940;2023-08-06T14:18:45;20.09;86.13
70336;SHT31;57756;47.408;18.940;2023-08-06T14:21:11;20.04;86.30
70336;SHT31;57756;47.408;18.940;2023-08-06T14:23:36;20.09;85.92
70336;SHT31;57756;47.408;18.940;2023-08-06T14:26:02;20.22;85.73
70336;SHT31;57756;47.408;18.940;2023-08-06T14:28:27;20.26;85.60
70336;SHT31;57756;47.408;18.940;2023-08-06T14:30:53;20.32;84.89
70336;SHT31;57756;47.408;18.940;2023-08-06T14:33:18;20.24;84.24
70336;SHT31;57756;47.408;18.940;2023-08-06T14:35:44;20.00;84.04
70336;SHT31;57756;47.408;18.940;2023-08-06T14:38:09;20.10;84.24
70336;SHT31;57756;47.408;18.940;2023-08-06T14:40:35;19.96;84.03
70336;SHT31;57756;47.408;18.940;2023-08-06T14:43:05;20.06;84.54
70336;SHT31;57756;47.408;18.940;2023-08-06T14:45:30;20.13;84.70
70336;SHT31;57756;47.408;18.940;2023-08-06T14:47:56;20.19;84.61
70336;SHT31;57756;47.408;18.940;2023-08-06T14:50:22;20.05;84.50
70336;SHT31;57756;47.408;18.940;2023-08-06T14:52:47;20.02;84.37
70336;SHT31;57756;47.408;18.940;2023-08-06T14:55:33;20.05;84.53
70336;SHT31;57756;47.408;18.940;2023-08-06T14:58:01;20.10;83.78
70336;SHT31;57756;47.408;18.940;2023-08-06T15:00:26;20.20;83.65
70336;SHT31;57756;47.408;18.940;2023-08-06T15:02:52;20.23;82.85
70336;SHT31;57756;47.408;18.940;2023-08-06T15:05:17;20.20;82.56
70336;SHT31;57756;47.408;18.940;2023-08-06T15:07:43;20.29;82.58
70336;SHT31;57756;47.408;18.940;2023-08-06T15:10:08;20.45;82.51
70336;SHT31;57756;47.408;18.940;2023-08-06T15:12:34;20.67;82.65
70336;SHT31;57756;47.408;18.940;2023-08-06T15:14:59;20.70;82.26
70336;SHT31;57756;47.408;18.940;2023-08-06T15:17:26;20.55;81.39
70336;SHT31;57756;47.408;18.940;2023-08-06T15:19:52;20.57;81.77
70336;SHT31;57756;47.408;18.940;2023-08-06T15:22:18;20.43;81.74
70336;SHT31;57756;47.408;18.940;2023-08-06T15:24:43;20.29;82.24